Time;durP1;ratioP1;P1;durP2;ratioP2;P2;SDS_P1;SDS_P2;PMS_P1;PMS_P2;Temp;Humidity;BMP_temperature;BMP_pressure;BME280_temperature;BME280_humidity;BME280_pressure;Samples;Min_cycle;Max_cycle;Signal;HPM_P1;HPM_P2
2021/01/13 00:05:59;;;;;;;14.90;7.55;;;;;;;0.33;100.00;97846.49;4302862;82;43908;-81
2021/01/13 00:12:01;;;;;;;17.70;8.13;;;;;;;0.34;100.00;97846.80;4290976;83;43956;-82
2021/01/13 00:18:04;;;;;;;16.55;7.80;;;;;;;0.34;100.00;97851.26;4299234;83;43928;-81
2021/01/13 00:24:07;;;;;;;16.62;8.20;;;;;;;0.42;100.00;97856.39;4301165;83;28580;-81
2021/01/13 00:30:10;;;;;;;14.73;7.12;;;;;;;0.47;100.00;97857.14;4287776;83;43936;-81
2021/01/13 00:36:23;;;;;;;18.40;8.58;;;;;;;0.36;100.00;97859.31;4303808;83;28570;-81
2021/01/13 00:42:24;;;;;;;18.23;8.38;;;;;;;0.43;100.00;97862.00;4300002;82;43908;-82
2021/01/13 00:48:27;;;;;;;14.25;7.15;;;;;;;0.39;100.00;97876.63;4250371;82;28626;-82
2021/01/13 00:54:28;;;;;;;15.43;6.92;;;;;;;0.38;100.00;97886.90;4315028;82;43908;-82
2021/01/13 01:00:31;;;;;;;12.10;6.67;;;;;;;0.38;100.00;97888.22;4292454;82;43230;-81
2021/01/13 01:06:36;;;;;;;10.23;5.67;;;;;;;0.39;100.00;97885.36;4282494;82;28616;-80
2021/01/13 01:12:38;;;;;;;11.78;5.35;;;;;;;0.46;100.00;97888.05;4298403;82;28635;-80
2021/01/13 01:18:40;;;;;;;10.05;5.10;;;;;;;0.52;100.00;97900.99;4291867;82;43214;-80
2021/01/13 01:24:43;;;;;;;8.88;4.58;;;;;;;0.54;100.00;97901.64;4293492;82;28600;-80
2021/01/13 01:30:45;;;;;;;7.67;4.00;;;;;;;0.49;100.00;97917.27;4291537;82;28552;-79
2021/01/13 01:36:48;;;;;;;8.95;4.53;;;;;;;0.43;100.00;97920.17;4285292;82;42729;-79
2021/01/13 01:42:54;;;;;;;10.68;5.58;;;;;;;0.46;100.00;97925.59;4310544;82;43238;-79
2021/01/13 01:49:00;;;;;;;11.03;5.80;;;;;;;0.49;100.00;97930.48;4249315;82;43215;-80
2021/01/13 01:55:05;;;;;;;11.95;5.58;;;;;;;0.52;100.00;97941.50;4273077;82;28605;-80
2021/01/13 02:01:07;;;;;;;10.90;6.30;;;;;;;0.50;100.00;97936.91;4253965;82;28621;-79
2021/01/13 02:07:34;;;;;;;11.03;5.33;;;;;;;0.48;100.00;97946.88;4271472;82;28645;-80
2021/01/13 02:13:36;;;;;;;10.80;5.55;;;;;;;0.44;100.00;97950.90;4292686;82;43220;-80
2021/01/13 02:19:58;;;;;;;13.08;5.97;;;;;;;0.45;100.00;97961.78;4284349;82;43561;-80
2021/01/13 02:26:30;;;;;;;10.38;4.85;;;;;;;0.39;100.00;97969.18;4292697;82;43293;-80
2021/01/13 02:32:37;;;;;;;10.05;5.10;;;;;;;0.50;100.00;97980.55;4306943;82;28592;-81
2021/01/13 02:38:41;;;;;;;10.90;5.12;;;;;;;0.35;100.00;97979.81;4298166;82;28631;-81
2021/01/13 02:44:48;;;;;;;8.08;4.22;;;;;;;0.29;100.00;97984.04;4261347;82;28630;-82
2021/01/13 02:50:57;;;;;;;11.00;4.75;;;;;;;0.35;100.00;97995.19;4254059;82;28589;-82
2021/01/13 02:57:23;;;;;;;10.32;4.42;;;;;;;0.40;100.00;97982.72;4252967;82;28607;-81
2021/01/13 03:03:25;;;;;;;;;;;;;;;0.33;100.00;97985.31;4251108;83;28607;-82
2021/01/13 03:09:31;;;;;;;7.87;4.60;;;;;;;0.22;100.00;97991.11;4240158;82;42741;-81
2021/01/13 03:15:35;;;;;;;;;;;;;;;0.31;100.00;97995.76;4241534;84;28591;-81
2021/01/13 03:21:45;;;;;;;12.15;5.25;;;;;;;0.08;100.00;97998.09;4258731;83;22308;-81
2021/01/13 03:27:48;;;;;;;9.10;5.30;;;;;;;0.09;100.00;97989.16;4252706;82;28624;-81
2021/01/13 03:34:24;;;;;;;11.68;5.72;;;;;;;0.03;100.00;97994.70;4261220;82;43325;-81
2021/01/13 03:40:31;;;;;;;12.63;6.87;;;;;;;0.04;100.00;98008.23;4262179;81;43931;-81
2021/01/13 03:46:34;;;;;;;10.30;5.85;;;;;;;0.05;100.00;97993.17;4312111;82;43218;-81
2021/01/13 03:52:43;;;;;;;13.00;7.05;;;;;;;-0.22;100.00;97999.01;4268115;82;43949;-81
2021/01/13 03:58:50;;;;;;;14.68;8.35;;;;;;;-0.17;100.00;98009.84;4297768;82;43940;-82
2021/01/13 04:05:16;;;;;;;16.17;8.75;;;;;;;-0.07;100.00;98011.37;4266631;82;43961;-81
2021/01/13 04:11:23;;;;;;;19.62;10.43;;;;;;;-0.02;100.00;98007.64;4260347;82;28564;-82
2021/01/13 04:17:28;;;;;;;14.80;7.78;;;;;;;0.01;100.00;98002.01;4271055;82;28542;-82
2021/01/13 04:23:32;;;;;;;13.85;7.37;;;;;;;0.04;100.00;97996.83;4296387;82;43931;-82
2021/01/13 04:29:35;;;;;;;14.33;6.97;;;;;;;-0.02;100.00;98011.13;4298738;82;43909;-80
2021/01/13 04:35:38;;;;;;;12.90;6.75;;;;;;;-0.05;100.00;97998.78;4282675;82;43952;-81
2021/01/13 04:42:04;;;;;;;16.90;9.23;;;;;;;-0.04;100.00;97998.60;4284833;83;43940;-81
2021/01/13 04:48:11;;;;;;;22.13;10.03;;;;;;;0.08;100.00;98013.96;4225647;83;28633;-80
2021/01/13 04:54:21;;;;;;;17.60;10.08;;;;;;;0.20;100.00;98016.41;4434674;78;76712;-78
2021/01/13 05:00:59;;;;;;;16.35;8.65;;;;;;;0.18;100.00;98014.47;4418857;79;43929;-80
2021/01/13 05:07:31;;;;;;;15.05;7.90;;;;;;;0.11;100.00;98024.15;4401370;80;43947;-83
2021/01/13 05:13:35;;;;;;;14.90;7.83;;;;;;;0.19;100.00;98035.09;4404199;80;43907;-83
2021/01/13 05:19:59;;;;;;;16.00;7.22;;;;;;;0.16;100.00;98047.38;4370910;80;43911;-82
2021/01/13 05:26:04;;;;;;;12.18;7.00;;;;;;;0.14;100.00;98043.59;4370424;80;43244;-83
2021/01/13 05:32:07;;;;;;;13.23;7.37;;;;;;;0.12;100.00;98050.41;4365299;80;28582;-83
2021/01/13 05:38:40;;;;;;;13.22;7.35;;;;;;;0.10;100.00;98046.30;4403362;80;43986;-82
2021/01/13 05:44:43;;;;;;;14.15;6.62;;;;;;;0.12;100.00;98066.27;4409007;80;43958;-83
2021/01/13 05:50:46;;;;;;;12.90;6.87;;;;;;;0.06;100.00;98080.22;4433607;80;43938;-83
2021/01/13 05:56:54;;;;;;;11.55;6.05;;;;;;;0.01;100.00;98091.03;4390601;79;43248;-82
2021/01/13 06:03:01;;;;;;;12.53;6.40;;;;;;;-0.04;100.00;98106.13;4379605;80;43208;-82
2021/01/13 06:09:04;;;;;;;12.03;6.20;;;;;;;-0.16;100.00;98118.49;4382074;80;43236;-81
2021/01/13 06:15:11;;;;;;;9.30;4.20;;;;;;;-0.11;100.00;98130.31;4376311;80;28567;-82
2021/01/13 06:21:14;;;;;;;5.95;2.70;;;;;;;-0.25;100.00;98135.96;4373329;80;43382;-77
2021/01/13 06:27:22;;;;;;;7.28;2.60;;;;;;;-0.39;100.00;98148.16;4422305;80;41860;-76
2021/01/13 06:33:28;;;;;;;5.97;1.82;;;;;;;-0.41;100.00;98168.14;4387938;80;43384;-78
2021/01/13 06:39:33;;;;;;;2.70;1.22;;;;;;;-0.54;100.00;98177.20;4364529;80;43272;-77
2021/01/13 06:45:35;;;;;;;4.35;1.35;;;;;;;-0.65;100.00;98198.25;4375962;78;28653;-76
2021/01/13 06:51:46;;;;;;;5.42;1.70;;;;;;;-0.68;100.00;98212.63;4423605;80;43469;-77
2021/01/13 06:57:52;;;;;;;5.47;1.50;;;;;;;-0.75;100.00;98221.77;4252102;83;43253;-77
2021/01/13 07:03:59;;;;;;;4.53;1.70;;;;;;;-0.83;100.00;98243.45;4197580;84;28544;-77
2021/01/13 07:10:06;;;;;;;4.87;2.27;;;;;;;-0.64;100.00;98251.38;4271326;81;43410;-77
2021/01/13 07:16:09;;;;;;;4.95;1.80;;;;;;;-0.57;100.00;98243.08;4234912;82;43484;-75
2021/01/13 07:22:13;;;;;;;5.62;2.27;;;;;;;-0.53;100.00;98253.59;4312793;80;43423;-76
2021/01/13 07:28:18;;;;;;;7.65;2.35;;;;;;;-0.52;100.00;98255.73;4235940;81;41844;-76
2021/01/13 07:34:36;;;;;;;7.80;2.42;;;;;;;-0.43;100.00;98266.04;4246274;81;28658;-77
2021/01/13 07:41:00;;;;;;;5.67;2.35;;;;;;;-0.29;100.00;98263.11;4241946;81;43457;-79
2021/01/13 07:47:03;;;;;;;7.55;3.50;;;;;;;-0.26;100.00;98270.34;4305833;82;42617;-79
2021/01/13 07:53:25;;;;;;;7.08;2.95;;;;;;;-0.22;100.00;98276.41;4216143;81;28691;-80
2021/01/13 07:59:46;;;;;;;7.20;2.72;;;;;;;-0.20;100.00;98282.84;4197073;84;28640;-78
2021/01/13 08:06:32;;;;;;;7.37;3.87;;;;;;;-0.24;100.00;98296.11;4209866;84;42562;-79
2021/01/13 08:13:19;;;;;;;7.83;3.60;;;;;;;-0.19;100.00;98298.53;4193147;84;42742;-79
2021/01/13 08:19:52;;;;;;;10.08;3.47;;;;;;;-0.26;100.00;98290.16;4148196;84;43218;-78
2021/01/13 08:25:58;;;;;;;10.00;4.50;;;;;;;0.04;100.00;98280.95;4211578;84;42978;-78
2021/01/13 08:32:10;;;;;;;8.10;3.70;;;;;;;0.26;100.00;98281.88;4220011;83;28593;-79
2021/01/13 08:38:12;;;;;;;8.85;3.83;;;;;;;0.39;100.00;98273.30;4183305;84;42697;-79
2021/01/13 08:44:17;;;;;;;11.60;4.12;;;;;;;0.54;100.00;98286.52;4353189;79;28539;-79
2021/01/13 08:50:21;;;;;;;11.20;5.10;;;;;;;0.52;100.00;98291.14;4342652;79;28597;-78
2021/01/13 08:56:56;;;;;;;12.40;4.72;;;;;;;0.73;100.00;98281.62;4348047;80;43210;-78
2021/01/13 09:09:32;;;;;;;13.88;6.22;;;;;;;1.06;100.00;98287.80;4596889;76;85990;-78
2021/01/13 09:15:35;;;;;;;13.93;6.08;;;;;;;0.87;100.00;98283.92;4500348;78;43982;-78
2021/01/13 09:21:42;;;;;;;16.85;6.97;;;;;;;0.74;100.00;98303.13;4505235;78;29000;-77
2021/01/13 09:27:53;;;;;;;14.53;6.45;;;;;;;0.66;100.00;98301.39;4465763;78;43926;-78
2021/01/13 09:33:57;;;;;;;14.73;6.37;;;;;;;0.50;100.00;98324.41;4473755;77;28613;-77
2021/01/13 09:40:02;;;;;;;14.85;6.67;;;;;;;0.41;100.00;98319.70;4478728;77;43967;-79
2021/01/13 09:46:23;;;;;;;16.67;6.55;;;;;;;0.76;100.00;98295.82;4504856;78;28589;-79
2021/01/13 09:52:42;;;;;;;13.10;5.78;;;;;;;0.78;100.00;98289.84;4390494;80;28545;-77
2021/01/13 09:58:48;;;;;;;17.52;7.03;;;;;;;1.37;100.00;98292.78;4392140;80;28592;-81
2021/01/13 10:04:51;;;;;;;17.57;7.50;;;;;;;1.29;100.00;98300.84;4383815;80;28694;-78
2021/01/13 10:10:57;;;;;;;19.60;7.15;;;;;;;1.74;100.00;98287.38;4308769;81;28676;-79
2021/01/13 10:17:00;;;;;;;17.35;6.87;;;;;;;1.53;100.00;98280.30;4379679;80;28564;-77
2021/01/13 10:23:12;;;;;;;16.95;7.03;;;;;;;1.13;100.00;98293.16;4388347;80;28650;-77
2021/01/13 10:29:23;;;;;;;18.10;7.33;;;;;;;1.14;100.00;98290.31;4367745;81;28585;-77
2021/01/13 10:35:40;;;;;;;20.70;8.00;;;;;;;1.06;100.00;98291.25;4390815;80;43941;-78
2021/01/13 10:41:50;;;;;;;18.20;7.80;;;;;;;1.22;100.00;98292.03;4370224;80;28541;-78
2021/01/13 10:47:59;;;;;;;18.73;7.42;;;;;;;1.46;100.00;98280.73;4372901;80;43953;-77
2021/01/13 10:54:05;;;;;;;23.22;8.73;;;;;;;1.45;100.00;98277.77;4340137;80;28547;-77
2021/01/13 11:00:16;;;;;;;20.05;8.95;;;;;;;1.49;100.00;98274.55;4334909;81;28648;-78
2021/01/13 11:06:23;;;;;;;21.50;8.80;;;;;;;1.60;100.00;98265.77;4365822;81;28621;-76
2021/01/13 11:12:26;;;;;;;21.20;9.08;;;;;;;1.56;100.00;98249.43;4310916;81;28557;-79
2021/01/13 11:18:29;;;;;;;25.17;9.60;;;;;;;1.69;100.00;98243.91;4364469;79;28598;-79
2021/01/13 11:24:39;;;;;;;23.92;9.05;;;;;;;1.90;100.00;98242.52;4382459;79;28545;-80
2021/01/13 11:30:44;;;;;;;19.12;7.53;;;;;;;1.94;100.00;98227.05;4387265;80;28619;-80
2021/01/13 11:37:10;;;;;;;16.07;6.10;;;;;;;1.91;100.00;98231.42;4392091;80;28610;-82
2021/01/13 11:43:42;;;;;;;15.68;6.03;;;;;;;1.91;100.00;98232.23;4256384;81;28563;-82
2021/01/13 11:49:53;;;;;;;13.08;5.53;;;;;;;1.62;100.00;98231.45;4346522;80;28555;-81
2021/01/13 11:56:04;;;;;;;11.60;4.58;;;;;;;1.44;100.00;98227.93;4342697;81;28599;-82
2021/01/13 12:02:08;;;;;;;12.23;5.90;;;;;;;1.39;100.00;98217.91;4337663;82;28582;-81
2021/01/13 12:08:13;;;;;;;15.17;6.50;;;;;;;1.50;100.00;98227.66;4335675;80;28615;-78
2021/01/13 12:14:16;;;;;;;13.80;6.58;;;;;;;1.24;100.00;98227.78;4388399;80;28545;-76
2021/01/13 12:20:33;;;;;;;14.98;6.97;;;;;;;0.96;100.00;98232.02;4398642;80;44082;-77
2021/01/13 12:26:36;;;;;;;14.18;6.72;;;;;;;0.87;100.00;98222.55;4387003;79;28539;-77
2021/01/13 12:32:41;;;;;;;15.23;6.50;;;;;;;0.79;100.00;98226.15;4386124;80;28603;-77
2021/01/13 12:38:48;;;;;;;11.48;5.35;;;;;;;0.73;100.00;98216.30;4391277;80;28567;-77
2021/01/13 12:44:51;;;;;;;10.65;5.47;;;;;;;0.83;100.00;98212.01;4380095;80;28660;-77
2021/01/13 12:50:53;;;;;;;10.58;5.37;;;;;;;0.73;100.00;98205.72;4393435;79;28630;-78
2021/01/13 12:56:55;;;;;;;13.15;5.47;;;;;;;0.72;100.00;98203.25;4381054;79;28562;-80
2021/01/13 13:02:59;;;;;;;12.13;5.28;;;;;;;0.86;100.00;98206.36;4367211;81;43228;-79
2021/01/13 13:09:09;;;;;;;11.03;5.47;;;;;;;0.99;100.00;98201.70;4361217;81;43310;-78
2021/01/13 13:15:12;;;;;;;10.13;5.47;;;;;;;1.02;100.00;98200.48;4349932;80;28569;-78
2021/01/13 13:21:15;;;;;;;13.45;6.62;;;;;;;0.71;100.00;98204.27;4290153;81;28605;-78
2021/01/13 13:27:18;;;;;;;12.37;5.87;;;;;;;0.76;100.00;98205.33;4363616;80;28619;-78
2021/01/13 13:33:20;;;;;;;12.98;5.75;;;;;;;0.61;100.00;98203.25;4362126;81;28614;-78
2021/01/13 13:39:22;;;;;;;14.73;7.25;;;;;;;0.47;100.00;98217.66;4363444;80;28585;-77
2021/01/13 13:45:24;;;;;;;14.03;6.58;;;;;;;0.45;100.00;98216.20;4361540;81;43907;-78
2021/01/13 13:51:27;;;;;;;13.30;6.50;;;;;;;0.45;100.00;98224.14;4341724;80;44243;-77
2021/01/13 13:57:29;;;;;;;14.43;7.35;;;;;;;0.46;100.00;98210.70;4361202;80;43966;-78
2021/01/13 14:03:31;;;;;;;14.55;6.97;;;;;;;0.57;100.00;98217.84;4360459;81;44349;-78
2021/01/13 14:09:34;;;;;;;15.83;7.37;;;;;;;0.53;100.00;98229.33;4357290;80;43966;-82
2021/01/13 14:15:36;;;;;;;14.28;7.42;;;;;;;0.53;100.00;98240.71;4352801;81;43918;-78
2021/01/13 14:21:40;;;;;;;16.48;8.00;;;;;;;0.46;100.00;98248.26;4338909;81;43915;-74
2021/01/13 14:27:42;;;;;;;17.35;8.98;;;;;;;0.58;100.00;98259.99;4363278;80;43917;-74
2021/01/13 14:33:44;;;;;;;17.57;8.55;;;;;;;0.59;100.00;98257.66;4372919;80;28628;-76
2021/01/13 14:39:47;;;;;;;19.17;9.80;;;;;;;0.59;100.00;98256.86;4343542;80;28547;-73
2021/01/13 14:45:49;;;;;;;15.95;8.30;;;;;;;0.55;100.00;98257.20;4340001;80;43968;-75
2021/01/13 14:51:52;;;;;;;16.97;7.78;;;;;;;0.50;100.00;98250.34;4345566;80;28660;-76
2021/01/13 14:57:54;;;;;;;17.52;8.30;;;;;;;0.55;100.00;98243.98;4355357;80;43924;-77
2021/01/13 15:03:56;;;;;;;20.55;8.60;;;;;;;0.51;100.00;98252.47;4356895;81;28697;-76
2021/01/13 15:09:58;;;;;;;19.05;8.50;;;;;;;0.47;100.00;98253.86;4357780;80;43949;-76
2021/01/13 15:16:00;;;;;;;20.88;9.50;;;;;;;0.37;100.00;98249.67;4369796;81;28550;-76
2021/01/13 15:22:03;;;;;;;18.25;9.08;;;;;;;0.43;100.00;98249.95;4377296;80;28548;-75
2021/01/13 15:28:05;;;;;;;21.82;10.35;;;;;;;0.36;100.00;98245.88;4364782;80;44451;-75
2021/01/13 15:34:07;;;;;;;18.87;9.25;;;;;;;0.40;100.00;98245.85;4371601;80;44011;-76
2021/01/13 15:40:09;;;;;;;17.45;8.83;;;;;;;0.34;100.00;98239.97;4321420;80;43936;-75
2021/01/13 15:46:12;;;;;;;17.15;8.93;;;;;;;0.46;100.00;98233.19;4368505;80;43910;-77
2021/01/13 15:52:21;;;;;;;17.30;8.08;;;;;;;0.38;100.00;98226.70;4390135;80;43918;-76
2021/01/13 15:58:31;;;;;;;20.35;9.35;;;;;;;0.36;100.00;98228.20;4381199;80;43945;-82
2021/01/13 16:04:33;;;;;;;20.52;9.33;;;;;;;0.43;100.00;98228.28;4353753;81;43966;-80
2021/01/13 16:10:36;;;;;;;15.48;7.22;;;;;;;0.35;100.00;98226.56;4377808;80;28632;-81
2021/01/13 16:16:38;;;;;;;18.48;8.35;;;;;;;0.31;100.00;98223.16;4386327;80;44001;-84
2021/01/13 16:22:41;;;;;;;18.87;8.10;;;;;;;0.34;100.00;98230.22;4297489;81;43920;-81
2021/01/13 16:28:44;;;;;;;16.23;7.53;;;;;;;0.32;100.00;98222.14;4386287;80;43965;-80
2021/01/13 16:34:49;;;;;;;18.07;8.53;;;;;;;0.24;100.00;98226.52;4384365;80;43962;-77
2021/01/13 16:40:54;;;;;;;23.20;8.90;;;;;;;0.26;100.00;98228.99;4380252;80;28541;-79
2021/01/13 16:46:56;;;;;;;18.95;8.03;;;;;;;0.22;100.00;98215.84;4388305;79;43988;-80
2021/01/13 16:52:59;;;;;;;19.23;8.43;;;;;;;0.24;100.00;98224.40;4368539;80;28605;-80
2021/01/13 16:59:04;;;;;;;16.37;8.28;;;;;;;0.21;100.00;98222.10;4308597;82;43952;-80
2021/01/13 17:05:10;;;;;;;18.30;7.17;;;;;;;0.22;100.00;98223.77;4382629;79;43981;-79
2021/01/13 17:11:13;;;;;;;15.70;7.40;;;;;;;0.23;100.00;98225.41;4337252;80;43907;-77
2021/01/13 17:17:17;;;;;;;18.95;7.80;;;;;;;0.25;100.00;98217.59;4354649;80;43938;-78
2021/01/13 17:23:21;;;;;;;17.07;7.03;;;;;;;0.19;100.00;98214.86;4275734;81;43905;-77
2021/01/13 17:29:24;;;;;;;18.02;7.80;;;;;;;0.23;100.00;98205.58;4378923;80;43946;-79
2021/01/13 17:35:27;;;;;;;17.90;7.67;;;;;;;0.17;100.00;98201.84;4307471;81;43903;-78
2021/01/13 17:41:29;;;;;;;19.12;7.22;;;;;;;0.23;100.00;98203.73;4351647;80;43932;-79
2021/01/13 17:53:46;;;;;;;21.02;7.95;;;;;;;0.29;100.00;98192.12;4474191;79;75458;-79
2021/01/13 17:59:51;;;;;;;22.70;9.45;;;;;;;0.08;100.00;98187.09;4396990;80;43945;-81
2021/01/13 18:06:03;;;;;;;20.45;8.85;;;;;;;0.14;100.00;98175.77;4401130;80;43950;-77
2021/01/13 18:12:07;;;;;;;19.00;8.73;;;;;;;0.06;100.00;98173.25;4421942;80;43905;-77
2021/01/13 18:18:12;;;;;;;19.67;9.80;;;;;;;0.11;100.00;98166.40;4398749;80;43906;-78
2021/01/13 18:24:14;;;;;;;21.25;9.88;;;;;;;0.04;100.00;98160.69;4389002;80;44246;-79
2021/01/13 18:30:17;;;;;;;18.67;9.63;;;;;;;0.02;100.00;98156.09;4406205;80;43968;-77
2021/01/13 18:36:20;;;;;;;20.00;8.50;;;;;;;0.00;100.00;98152.34;4410764;80;43926;-78
2021/01/13 18:42:22;;;;;;;22.77;9.75;;;;;;;-0.08;100.00;98146.63;4405704;80;43907;-79
2021/01/13 18:48:24;;;;;;;21.62;9.38;;;;;;;-0.07;100.00;98142.98;4385994;80;43946;-79
2021/01/13 18:54:26;;;;;;;15.80;8.03;;;;;;;-0.08;100.00;98137.38;4413989;80;43961;-78
2021/01/13 19:00:31;;;;;;;20.77;9.78;;;;;;;-0.11;100.00;98135.60;4421049;80;43964;-77
2021/01/13 19:06:33;;;;;;;18.42;8.50;;;;;;;-0.10;100.00;98135.95;4441562;79;43934;-79
2021/01/13 19:12:36;;;;;;;21.10;8.85;;;;;;;-0.11;100.00;98132.47;4419392;80;43902;-78
2021/01/13 19:18:39;;;;;;;17.37;8.33;;;;;;;-0.07;100.00;98134.25;4402422;80;43909;-76
2021/01/13 19:24:42;;;;;;;18.17;9.13;;;;;;;0.01;100.00;98135.47;4419544;80;44034;-78
2021/01/13 19:30:44;;;;;;;19.02;8.53;;;;;;;0.05;100.00;98131.44;4411163;80;43938;-77
2021/01/13 19:36:51;;;;;;;17.70;9.58;;;;;;;0.10;100.00;98126.92;4329110;81;43946;-78
2021/01/13 19:49:08;;;;;;;18.00;8.43;;;;;;;0.04;100.00;98105.19;4597358;76;85018;-76
2021/01/13 19:55:11;;;;;;;19.42;9.33;;;;;;;0.05;100.00;98100.21;4524324;78;43911;-76
2021/01/13 20:01:12;;;;;;;21.17;8.95;;;;;;;-0.01;100.00;98085.92;4395372;79;43962;-78
2021/01/13 20:07:16;;;;;;;19.70;10.28;;;;;;;0.09;100.00;98089.60;4388740;80;28548;-77
2021/01/13 20:13:19;;;;;;;21.17;9.98;;;;;;;0.17;100.00;98086.02;4383705;80;44487;-75
2021/01/13 20:19:24;;;;;;;20.97;10.13;;;;;;;0.10;100.00;98081.98;4378627;80;44445;-75
2021/01/13 20:25:27;;;;;;;21.30;10.58;;;;;;;0.11;100.00;98080.48;4375893;80;44488;-78
2021/01/13 20:31:29;;;;;;;24.52;11.05;;;;;;;0.11;100.00;98075.69;4383031;80;43584;-76
2021/01/13 20:37:33;;;;;;;20.72;10.53;;;;;;;0.12;100.00;98066.27;4357628;80;44462;-76
2021/01/13 20:43:37;;;;;;;23.15;10.80;;;;;;;0.15;100.00;98051.03;4389935;80;42906;-75
2021/01/13 20:49:39;;;;;;;20.48;9.85;;;;;;;0.10;100.00;98048.42;4368253;80;44435;-77
2021/01/13 20:55:42;;;;;;;23.45;10.30;;;;;;;-0.01;100.00;98047.11;4385226;80;44510;-76
2021/01/13 21:01:51;;;;;;;26.07;10.63;;;;;;;0.07;100.00;98037.44;4380827;80;28579;-75
2021/01/13 21:07:54;;;;;;;19.65;10.00;;;;;;;0.10;100.00;98039.70;4378873;80;28651;-76
2021/01/13 21:13:57;;;;;;;19.87;9.50;;;;;;;0.08;100.00;98028.50;4351058;81;44195;-76
2021/01/13 21:20:00;;;;;;;24.72;10.93;;;;;;;0.13;100.00;98024.77;4354654;80;42897;-75
2021/01/13 21:26:02;;;;;;;20.45;8.95;;;;;;;0.14;100.00;98014.51;4349750;80;43923;-75
2021/01/13 21:32:06;;;;;;;19.27;9.28;;;;;;;0.09;100.00;97999.73;4351417;80;43919;-75
2021/01/13 21:38:09;;;;;;;18.60;8.85;;;;;;;0.04;100.00;97991.05;4357149;81;43907;-76
2021/01/13 21:44:13;;;;;;;21.33;9.80;;;;;;;-0.01;100.00;97988.97;4355909;80;44169;-77
2021/01/13 21:50:15;;;;;;;22.98;9.53;;;;;;;0.02;100.00;97989.59;4343164;81;43994;-77
2021/01/13 21:56:22;;;;;;;21.30;8.73;;;;;;;0.07;100.00;97983.25;4359062;80;43962;-77
2021/01/13 22:02:24;;;;;;;18.52;8.75;;;;;;;0.06;100.00;97977.14;4349406;80;43954;-76
2021/01/13 22:08:26;;;;;;;16.48;8.38;;;;;;;0.08;100.00;97971.67;4351926;80;43934;-75
2021/01/13 22:14:28;;;;;;;19.75;9.38;;;;;;;0.11;100.00;97956.25;4387459;80;28621;-76
2021/01/13 22:20:32;;;;;;;19.67;9.28;;;;;;;0.05;100.00;97954.84;4300130;81;43931;-76
2021/01/13 22:26:35;;;;;;;21.12;8.58;;;;;;;0.10;100.00;97953.27;4341735;80;43982;-76
2021/01/13 22:32:38;;;;;;;19.95;9.23;;;;;;;0.13;100.00;97942.34;4350518;80;43931;-76
2021/01/13 22:38:42;;;;;;;19.52;8.98;;;;;;;0.09;100.00;97941.06;4366344;80;43938;-77
2021/01/13 22:44:44;;;;;;;17.25;8.18;;;;;;;0.17;100.00;97932.20;4345660;80;43947;-76
2021/01/13 22:50:46;;;;;;;16.07;7.92;;;;;;;0.19;100.00;97928.86;4350033;80;43987;-76
2021/01/13 22:56:53;;;;;;;15.90;8.10;;;;;;;0.20;100.00;97928.34;4333876;80;44000;-76
2021/01/13 23:02:55;;;;;;;20.88;10.10;;;;;;;0.16;100.00;97920.00;4363927;80;44428;-76
2021/01/13 23:08:59;;;;;;;19.37;9.38;;;;;;;0.23;100.00;97906.30;4366039;80;43999;-75
2021/01/13 23:15:01;;;;;;;22.62;10.03;;;;;;;0.19;100.00;97906.39;4380942;80;44499;-74
2021/01/13 23:21:11;;;;;;;21.05;9.75;;;;;;;0.19;100.00;97897.14;4343368;80;43993;-77
2021/01/13 23:27:14;;;;;;;15.65;7.62;;;;;;;0.22;100.00;97879.56;4379212;80;28532;-77
2021/01/13 23:33:16;;;;;;;19.05;9.05;;;;;;;0.16;100.00;97877.70;4390072;80;28580;-77
2021/01/13 23:39:19;;;;;;;15.72;8.63;;;;;;;-0.02;100.00;97878.16;4362050;80;43950;-76
2021/01/13 23:45:22;;;;;;;16.35;7.85;;;;;;;0.09;100.00;97866.26;4334463;81;28575;-77
2021/01/13 23:51:24;;;;;;;18.37;8.15;;;;;;;0.14;100.00;97851.94;4350081;82;44025;-77
2021/01/13 23:57:26;;;;;;;17.37;8.00;;;;;;;-0.04;100.00;97845.33;4348364;82;44000;-77
